createdAt,value
2016-11-19T00:00:25.717Z,73.69
2016-11-19T00:01:35.759Z,73.69
2016-11-19T00:02:46.117Z,73.49
2016-11-19T00:03:56.171Z,73.4
2016-11-19T00:05:06.224Z,73.36
2016-11-19T00:06:16.276Z,73.4
2016-11-19T00:07:26.698Z,73.46
2016-11-19T00:08:36.735Z,73.3
2016-11-19T00:09:47.091Z,73.49
2016-11-19T00:10:57.453Z,73.49
2016-11-19T00:12:07.784Z,73.49
2016-11-19T00:13:18.131Z,73.02
2016-11-19T00:14:28.157Z,73.11
2016-11-19T00:15:37.878Z,73.4
2016-11-19T00:16:48.229Z,73.49
2016-11-19T00:17:58.260Z,73.49
2016-11-19T00:19:08.596Z,73.49
2016-11-19T00:20:18.612Z,73.21
2016-11-19T00:21:28.952Z,73.49
2016-11-19T00:22:39.275Z,73.49
2016-11-19T00:23:49.618Z,73.27
2016-11-19T00:24:59.960Z,73.46
2016-11-19T00:26:10.292Z,73.46
2016-11-19T00:27:20.608Z,73.18
2016-11-19T00:28:30.944Z,73.84
2016-11-19T00:29:40.695Z,73.27
2016-11-19T00:30:51.087Z,73.93
2016-11-19T00:32:01.434Z,73.36
2016-11-19T00:33:11.467Z,73.46
2016-11-19T00:34:21.842Z,73.27
2016-11-19T00:35:32.199Z,73.46
2016-11-19T00:36:42.544Z,73.27
2016-11-19T00:37:52.884Z,73.18
2016-11-19T00:39:03.427Z,73.65
2016-11-19T00:40:13.783Z,73.46
2016-11-19T00:41:24.193Z,73.36
2016-11-19T00:42:34.548Z,73.18
2016-11-19T00:43:44.299Z,73.46
2016-11-19T00:44:54.662Z,73.18
2016-11-19T00:46:05.012Z,73.46
2016-11-19T00:47:15.357Z,73.36
2016-11-19T00:48:25.386Z,73.18
2016-11-19T00:49:35.753Z,72.99
2016-11-19T00:50:45.818Z,73.36
2016-11-19T00:51:55.884Z,72.7
2016-11-19T00:53:06.227Z,72.7
2016-11-19T00:54:16.239Z,72.74
2016-11-19T00:55:25.664Z,72.74
2016-11-19T00:56:36.002Z,73.02
2016-11-19T00:57:46.008Z,73.11
2016-11-19T00:58:56.060Z,72.92
2016-11-19T01:00:06.422Z,72.92
2016-11-19T01:01:16.758Z,73.11
2016-11-19T01:02:26.815Z,73.11
2016-11-19T01:03:37.175Z,73.11
2016-11-19T01:04:47.199Z,73.21
2016-11-19T01:05:57.547Z,72.83
2016-11-19T01:07:07.926Z,73.02
2016-11-19T01:08:18.370Z,73.02
2016-11-19T01:09:28.960Z,72.83
2016-11-19T01:10:39.014Z,72.74
2016-11-19T01:11:49.413Z,72.83
2016-11-19T01:12:59.442Z,72.83
2016-11-19T01:14:09.812Z,73.11
2016-11-19T01:15:20.223Z,72.83
2016-11-19T01:16:30.559Z,73.21
2016-11-19T01:17:40.922Z,73.02
2016-11-19T01:18:51.290Z,72.92
2016-11-19T01:20:01.331Z,73.02
2016-11-19T01:21:11.689Z,73.21
2016-11-19T01:22:21.724Z,73.02
2016-11-19T01:23:32.062Z,73.11
2016-11-19T01:24:42.390Z,73.02
2016-11-19T01:25:52.426Z,72.64
2016-11-19T01:27:02.793Z,73.21
2016-11-19T01:28:13.131Z,73.02
2016-11-19T01:29:23.461Z,73.11
2016-11-19T01:30:33.808Z,72.83
2016-11-19T01:31:43.825Z,72.83
2016-11-19T01:32:54.170Z,72.83
2016-11-19T01:34:04.496Z,72.74
2016-11-19T01:35:14.885Z,72.83
2016-11-19T01:36:24.918Z,73.02
2016-11-19T01:37:34.937Z,73.02
2016-11-19T01:38:44.970Z,73.02
2016-11-19T01:39:55.311Z,72.83
2016-11-19T01:41:05.668Z,73.02
2016-11-19T01:42:16.034Z,73.11
2016-11-19T01:43:26.058Z,72.83
2016-11-19T01:44:36.388Z,73.11
2016-11-19T01:45:46.724Z,73.11
2016-11-19T01:46:57.062Z,72.83
2016-11-19T01:48:06.785Z,73.02
2016-11-19T01:49:17.120Z,72.83
2016-11-19T01:50:27.142Z,73.02
2016-11-19T01:51:37.474Z,72.83
2016-11-19T01:52:47.794Z,73.21
2016-11-19T01:53:57.831Z,73.11
2016-11-19T01:55:07.848Z,72.74
2016-11-19T01:56:17.874Z,72.79
2016-11-19T01:57:28.188Z,72.83
2016-11-19T01:58:38.574Z,72.74
2016-11-19T01:59:48.914Z,73.02
2016-11-19T02:00:59.255Z,72.92
2016-11-19T02:02:09.619Z,73.3
2016-11-19T02:03:19.976Z,73.02
2016-11-19T02:04:30.306Z,72.74
2016-11-19T02:05:40.330Z,72.92
2016-11-19T02:06:50.660Z,72.74
2016-11-19T02:08:00.996Z,73.11
2016-11-19T02:09:11.343Z,72.55
2016-11-19T02:10:21.730Z,72.64
2016-11-19T02:11:31.792Z,72.07
2016-11-19T02:12:41.817Z,72.74
2016-11-19T02:13:51.853Z,72.64
2016-11-19T02:15:02.187Z,72.35
2016-11-19T02:16:12.553Z,72.64
2016-11-19T02:17:22.571Z,72.83
2016-11-19T02:18:32.941Z,72.55
2016-11-19T02:19:43.269Z,72.74
2016-11-19T02:20:52.991Z,72.92
2016-11-19T02:22:03.330Z,73.02
2016-11-19T02:23:13.712Z,73.15
2016-11-19T02:24:24.041Z,72.77
2016-11-19T02:25:34.051Z,72.58
2016-11-19T02:26:44.418Z,72.96
2016-11-19T02:27:54.762Z,72.55
2016-11-19T02:29:04.792Z,72.67
2016-11-19T02:30:15.128Z,72.77
2016-11-19T02:31:25.468Z,72.96
2016-11-19T02:32:35.828Z,72.77
2016-11-19T02:33:46.149Z,72.58
2016-11-19T02:34:56.483Z,72.77
2016-11-19T02:36:06.811Z,72.39
2016-11-19T02:37:17.146Z,72.3
2016-11-19T02:38:27.170Z,72.3
2016-11-19T02:39:36.559Z,72.77
2016-11-19T02:40:46.898Z,72.58
2016-11-19T02:41:57.242Z,72.58
2016-11-19T02:43:07.283Z,72.96
2016-11-19T02:44:17.618Z,73.06
2016-11-19T02:45:27.985Z,73.06
2016-11-19T02:46:38.333Z,72.86
2016-11-19T02:47:48.669Z,73.25
2016-11-19T02:48:58.996Z,73.06
2016-11-19T02:50:09.015Z,72.86
2016-11-19T02:51:19.342Z,73.06
2016-11-19T02:52:29.364Z,73.15
2016-11-19T02:53:39.698Z,72.96
2016-11-19T02:54:50.299Z,72.96
2016-11-19T02:56:00.627Z,72.86
2016-11-19T02:57:10.949Z,72.77
2016-11-19T02:58:20.967Z,72.67
2016-11-19T02:59:31.290Z,72.86
2016-11-19T03:00:41.332Z,72.86
2016-11-19T03:32:20.518Z,70.5
2016-11-19T03:33:30.547Z,71.36
2016-11-19T03:34:40.244Z,72.59
2016-11-19T03:35:50.568Z,73.63
2016-11-19T03:37:00.916Z,74.49
2016-11-19T03:38:11.249Z,74.81
2016-11-19T03:39:21.570Z,75.19
2016-11-19T03:40:31.891Z,75.76
2016-11-19T03:41:42.218Z,75.85
2016-11-19T03:42:52.550Z,75.47
2016-11-19T03:44:02.913Z,75.6
2016-11-19T03:45:13.238Z,75.51
2016-11-19T03:46:22.950Z,75.89
2016-11-19T03:47:32.973Z,75.89
2016-11-19T03:48:42.688Z,75.84
2016-11-19T03:49:52.392Z,75.26
2016-11-19T03:51:02.773Z,75.36
2016-11-19T03:52:13.123Z,75.17
2016-11-19T03:53:23.460Z,75.26
2016-11-19T03:54:33.799Z,75.07
2016-11-19T03:55:43.558Z,74.73
2016-11-19T03:56:53.580Z,75.11
2016-11-19T03:58:03.611Z,75.11
2016-11-19T03:59:13.960Z,74.73
2016-11-19T04:00:24.286Z,74.73
2016-11-19T04:01:34.626Z,74.26
2016-11-19T04:02:44.959Z,74.63
2016-11-19T04:03:54.982Z,74.63
2016-11-19T04:05:05.323Z,74.54
2016-11-19T04:06:15.344Z,74.73
2016-11-19T04:07:25.677Z,74.44
2016-11-19T04:08:35.998Z,73.88
2016-11-19T04:09:46.320Z,73.97
2016-11-19T04:10:56.669Z,73.91
2016-11-19T04:12:06.705Z,73.78
2016-11-19T04:13:17.084Z,73.88
2016-11-19T04:14:27.096Z,73.88
2016-11-19T04:15:37.114Z,73.63
2016-11-19T04:16:47.448Z,73.82
2016-11-19T04:17:57.805Z,74.01
2016-11-19T04:19:08.134Z,73.78
2016-11-19T04:20:18.152Z,73.82
2016-11-19T04:21:28.161Z,73.72
2016-11-19T04:22:38.508Z,74.01
2016-11-19T04:23:48.212Z,73.91
2016-11-19T04:24:58.226Z,73.82
2016-11-19T04:26:08.554Z,74.01
2016-11-19T04:27:18.877Z,74.2
2016-11-19T04:28:29.202Z,74.01
2016-11-19T04:29:39.221Z,73.53
2016-11-19T04:30:49.280Z,74.1
2016-11-19T04:31:59.613Z,73.53
2016-11-19T11:47:32.549Z,75.18
2016-11-19T11:48:42.584Z,75.18
2016-11-19T11:49:52.957Z,75.18
2016-11-19T11:51:03.403Z,74.93
2016-11-19T11:52:13.453Z,75.31
2016-11-19T11:53:23.490Z,75.31
2016-11-19T11:54:33.854Z,75.5
2016-11-19T11:55:43.584Z,75.4
2016-11-19T11:56:53.931Z,75.27
2016-11-19T11:58:04.003Z,75.31
2016-11-19T11:59:14.026Z,75.4
2016-11-19T12:00:24.052Z,75.4
2016-11-19T12:01:34.088Z,75.21
2016-11-19T12:02:44.151Z,75.46
2016-11-19T12:03:54.493Z,75.5
2016-11-19T12:05:04.550Z,75.85
2016-11-19T12:06:14.575Z,75.46
2016-11-19T12:07:24.907Z,75.7
2016-11-19T12:08:34.944Z,75.18
2016-11-19T12:09:44.970Z,75.4
2016-11-19T12:10:55.307Z,75.12
2016-11-19T12:12:05.334Z,75.31
2016-11-19T12:13:15.738Z,75.65
2016-11-19T12:14:26.066Z,75.56
2016-11-19T12:15:36.102Z,75.56
2016-11-19T12:16:46.131Z,75.56
2016-11-19T12:17:56.513Z,75.5
2016-11-19T12:19:06.854Z,75.46
2016-11-19T12:20:17.186Z,75.46
2016-11-19T12:21:27.541Z,75.56
2016-11-19T12:22:37.579Z,75.46
2016-11-19T12:23:47.940Z,75.7
2016-11-19T12:24:58.317Z,75.65
2016-11-19T12:26:08.334Z,75.5
2016-11-19T12:27:18.059Z,75.21
2016-11-19T12:28:28.093Z,75.31
2016-11-19T12:29:38.440Z,75.5
2016-11-19T12:30:48.787Z,75.6
2016-11-19T12:31:59.128Z,75.6
2016-11-19T12:33:09.477Z,76.27
2016-11-19T12:34:19.822Z,75.7
2016-11-19T12:35:29.872Z,76.07
2016-11-19T12:36:39.925Z,75.79
2016-11-19T12:37:50.262Z,75.89
2016-11-19T12:39:00.313Z,75.98
2016-11-19T12:40:10.665Z,75.89
2016-11-19T12:41:20.680Z,75.89
2016-11-19T12:42:31.029Z,75.7
2016-11-19T12:43:41.412Z,75.5
2016-11-19T12:44:51.772Z,75.7
2016-11-19T12:46:01.797Z,75.89
2016-11-19T12:47:12.135Z,75.89
2016-11-19T12:48:21.852Z,75.79
2016-11-19T12:49:32.189Z,75.89
2016-11-19T12:50:42.533Z,75.7
2016-11-19T12:51:53.105Z,75.7
2016-11-19T12:53:03.438Z,76.07
2016-11-19T12:54:13.780Z,76.27
2016-11-19T12:55:24.125Z,75.4
2016-11-19T12:56:33.856Z,75.92
2016-11-19T12:57:43.893Z,75.82
2016-11-19T12:58:54.242Z,75.82
2016-11-19T13:00:04.607Z,75.73
2016-11-19T13:01:14.966Z,75.92
2016-11-19T13:02:25.319Z,75.82
2016-11-19T13:03:35.666Z,75.25
2016-11-19T13:04:46.003Z,75.29
2016-11-19T13:05:56.340Z,75.48
2016-11-19T13:07:06.388Z,74.62
2016-11-19T13:08:16.743Z,74.65
2016-11-19T13:09:27.085Z,74.46
2016-11-19T13:10:37.428Z,74.08
2016-11-19T13:11:47.793Z,74.3
2016-11-19T13:12:58.136Z,74.21
2016-11-19T13:14:08.176Z,74.34
2016-11-19T13:15:18.548Z,74.34
2016-11-19T13:16:28.603Z,74.82
2016-11-19T13:17:38.637Z,74.34
2016-11-19T13:18:48.684Z,74.44
2016-11-19T13:19:59.029Z,74.73
2016-11-19T13:21:09.376Z,74.54
2016-11-19T13:22:19.403Z,74.92
2016-11-19T13:23:29.742Z,74.92
2016-11-19T13:24:40.106Z,75.31
2016-11-19T13:25:50.493Z,75.21
2016-11-19T13:27:00.531Z,75.4
2016-11-19T13:28:10.873Z,75.59
2016-11-19T13:29:20.909Z,75.56
2016-11-19T13:30:31.267Z,75.49
2016-11-19T13:31:41.598Z,75.49
2016-11-19T13:32:51.626Z,75.4
2016-11-19T13:34:01.967Z,75.59
2016-11-19T13:35:12.313Z,75.59
2016-11-19T13:36:22.680Z,75.49
2016-11-19T13:37:32.721Z,75.59
2016-11-19T13:38:43.054Z,75.4
2016-11-19T13:39:53.415Z,75.65
2016-11-19T13:41:03.766Z,76.04
2016-11-19T13:42:13.484Z,75.65
2016-11-19T13:43:23.510Z,76.23
2016-11-19T13:44:33.543Z,75.94
2016-11-19T13:45:43.580Z,75.84
2016-11-19T13:46:53.592Z,76.04
2016-11-19T13:48:02.994Z,75.84
2016-11-19T13:49:12.718Z,75.65
2016-11-19T13:50:22.747Z,76.04
2016-11-19T13:51:33.102Z,75.84
2016-11-19T13:52:43.464Z,76
2016-11-19T13:53:53.813Z,75.9
2016-11-19T13:55:04.171Z,76.57
2016-11-19T13:56:14.521Z,76.19
2016-11-19T13:57:24.860Z,76.67
2016-11-19T13:58:35.229Z,76.67
2016-11-19T13:59:45.584Z,76.54
2016-11-19T14:00:55.857Z,76.48
2016-11-19T14:02:06.201Z,76.34
2016-11-19T14:03:16.535Z,76.25
2016-11-19T14:04:26.264Z,76.34
2016-11-19T14:05:36.596Z,76.54
2016-11-19T14:06:46.651Z,76.73
2016-11-19T14:07:57.012Z,76.44
2016-11-19T14:09:07.356Z,76.54
2016-11-19T14:10:17.426Z,76.54
2016-11-19T14:11:27.764Z,76.54
2016-11-19T14:12:37.800Z,76.34
2016-11-19T14:13:48.141Z,76.25
2016-11-19T14:14:57.863Z,76.54
2016-11-19T14:16:07.582Z,76.64
2016-11-19T14:17:17.956Z,76.44
2016-11-19T14:18:27.981Z,76.64
2016-11-19T14:19:38.330Z,76.44
2016-11-19T14:20:48.349Z,76.64
2016-11-19T14:21:58.701Z,76.44
2016-11-19T14:23:09.055Z,76.44
2016-11-19T14:24:19.076Z,76.73
2016-11-19T14:25:29.423Z,76.54
2016-11-19T14:26:39.469Z,76.25
2016-11-19T14:27:49.814Z,76.44
2016-11-19T14:28:59.843Z,76.15
2016-11-19T14:30:09.554Z,76.34
2016-11-19T14:31:19.898Z,76.44
2016-11-19T14:32:30.239Z,76.25
2016-11-19T14:33:39.974Z,76.59
2016-11-19T14:34:50.315Z,76.92
2016-11-19T14:36:00.652Z,76.31
2016-11-19T14:37:11.128Z,76.4
2016-11-19T14:38:21.476Z,76.4
2016-11-19T14:39:31.514Z,76.4
2016-11-19T14:40:41.850Z,76.5
2016-11-19T14:41:51.990Z,77.08
2016-11-19T14:43:02.392Z,76.79
2016-11-19T14:44:12.441Z,76.98
2016-11-19T14:45:22.826Z,76.69
2016-11-19T14:46:33.197Z,76.88
2016-11-19T14:47:43.559Z,76.88
2016-11-19T14:48:54.110Z,76.98
2016-11-19T14:50:04.250Z,77.17
2016-11-19T14:51:14.681Z,77.17
2016-11-19T14:52:25.055Z,77.17
2016-11-19T14:53:35.412Z,77.17
2016-11-19T14:54:45.543Z,77.17
2016-11-19T14:55:55.627Z,77.17
2016-11-19T14:57:06.233Z,77.17
2016-11-19T14:58:16.644Z,77.08
2016-11-19T14:59:26.756Z,77.17
2016-11-19T15:00:36.881Z,76.98
2016-11-19T15:01:47.244Z,77.17
2016-11-19T15:02:57.038Z,77.17
2016-11-19T15:04:07.452Z,77.17
2016-11-19T15:05:17.887Z,76.69
2016-11-19T15:06:27.955Z,77.26
2016-11-19T15:07:38.346Z,77.17
2016-11-19T15:08:48.391Z,77.26
2016-11-19T15:09:58.102Z,77.08
2016-11-19T15:11:08.427Z,77.17
2016-11-19T15:12:18.811Z,77.17
2016-11-19T15:13:29.212Z,77.17
2016-11-19T15:14:39.564Z,77.08
2016-11-19T15:15:49.927Z,77.17
2016-11-19T15:17:00.292Z,76.88
2016-11-19T15:18:10.328Z,77.17
2016-11-19T15:19:20.397Z,76.88
2016-11-19T15:20:30.759Z,76.79
2016-11-19T15:21:41.125Z,77.17
2016-11-19T15:22:51.489Z,76.69
2016-11-19T15:24:01.882Z,76.69
2016-11-19T15:25:11.909Z,76.79
2016-11-19T15:26:22.261Z,76.98
2016-11-19T15:27:32.655Z,76.98
2016-11-19T15:28:43.046Z,76.79
2016-11-19T15:29:53.139Z,76.88
2016-11-19T15:31:03.553Z,76.65
2016-11-19T15:32:13.979Z,77.33
2016-11-19T15:33:24.325Z,77.61
2016-11-19T15:34:34.730Z,77.76
2016-11-19T15:35:45.079Z,77.67
2016-11-19T15:36:55.146Z,77.53
2016-11-19T15:38:05.486Z,77.44
2016-11-19T15:39:16.190Z,77.4
2016-11-19T15:40:26.519Z,77.4
2016-11-19T15:41:36.925Z,77.21
2016-11-19T15:42:47.273Z,77.26
2016-11-19T15:43:56.991Z,77.65
2016-11-19T15:45:07.343Z,77.46
2016-11-19T15:46:17.703Z,77.61
2016-11-19T15:47:28.084Z,77.51
2016-11-19T15:48:38.549Z,77.04
2016-11-19T15:49:48.689Z,77.19
2016-11-19T15:50:59.157Z,76.9
2016-11-19T15:52:09.243Z,77.09
2016-11-19T15:53:19.655Z,76.9
2016-11-19T15:54:30.048Z,77
2016-11-19T15:55:40.424Z,76.42
2016-11-19T15:56:50.790Z,76.62
2016-11-19T15:58:01.209Z,76.04
2016-11-19T15:59:11.580Z,76.2
2016-11-19T16:00:21.651Z,75.81
2016-11-19T16:01:32.041Z,75.91
2016-11-19T16:02:42.428Z,75.81
2016-11-19T16:03:52.802Z,75.81
2016-11-19T16:05:03.265Z,76.2
2016-11-19T16:06:13.682Z,76.2
2016-11-19T16:07:24.058Z,76.2
2016-11-19T16:08:34.439Z,76.29
2016-11-19T16:09:44.807Z,76.1
2016-11-19T16:10:54.935Z,76
2016-11-19T16:12:05.301Z,76.1
2016-11-19T16:13:15.729Z,75.59
2016-11-19T16:14:26.153Z,75.78
2016-11-19T16:15:36.581Z,75.71
2016-11-19T16:16:46.959Z,75.68
2016-11-19T16:17:57.355Z,75.59
2016-11-19T16:19:07.463Z,75.78
2016-11-19T16:20:17.881Z,75.78
2016-11-19T16:21:28.272Z,75.68
2016-11-19T16:22:38.656Z,75.78
2016-11-19T16:23:49.242Z,75.78
2016-11-19T16:24:59.601Z,75.59
2016-11-19T16:26:09.968Z,76.16
2016-11-19T16:27:20.055Z,76.16
2016-11-19T16:28:30.095Z,76.06
2016-11-19T16:29:40.452Z,76.16
2016-11-19T16:30:50.800Z,76.21
2016-11-19T16:32:01.180Z,76.03
2016-11-19T16:33:11.630Z,76.12
2016-11-19T16:34:21.987Z,75.93
2016-11-19T16:35:32.043Z,75.64
2016-11-19T16:36:42.088Z,75.93
2016-11-19T16:37:52.544Z,75.64
2016-11-19T16:39:02.635Z,75.83
2016-11-19T16:40:13.004Z,75.83
2016-11-19T16:41:23.420Z,75.83
2016-11-19T16:42:33.785Z,75.64
2016-11-19T16:43:44.122Z,75.89
2016-11-19T16:44:54.513Z,75.93
2016-11-19T16:46:04.894Z,75.51
2016-11-19T16:47:14.931Z,75.93
2016-11-19T16:48:25.311Z,75.6
2016-11-19T16:49:35.636Z,75.7
2016-11-19T16:50:45.666Z,75.7
2016-11-19T16:51:56.096Z,75.79
2016-11-19T16:53:06.485Z,75.6
2016-11-19T16:54:16.509Z,75.89
2016-11-19T16:55:26.867Z,75.79
2016-11-19T16:56:37.210Z,75.6
2016-11-19T16:57:47.552Z,75.89
2016-11-19T16:58:57.908Z,75.7
2016-11-19T17:00:07.969Z,75.89
2016-11-19T17:01:18.323Z,75.42
2016-11-19T17:02:28.693Z,75.51
2016-11-19T17:03:39.132Z,75.42
2016-11-19T17:04:49.189Z,75.13
2016-11-19T17:05:59.550Z,75.7
2016-11-19T17:07:09.915Z,75.7
2016-11-19T17:08:20.270Z,75.7
2016-11-19T17:09:30.615Z,75.32
2016-11-19T17:10:40.999Z,75.32
2016-11-19T17:11:51.374Z,75.42
2016-11-19T17:13:01.451Z,75.79
2016-11-19T17:14:11.801Z,75.7
2016-11-19T17:15:22.148Z,75.22
2016-11-19T17:16:32.189Z,75.32
2016-11-19T17:17:42.535Z,75.79
2016-11-19T17:18:52.565Z,75.6
2016-11-19T17:20:02.819Z,75.03
2016-11-19T17:21:12.884Z,75.6
2016-11-19T17:22:22.916Z,75.42
2016-11-19T17:23:32.989Z,75.42
2016-11-19T17:24:43.342Z,75.51
2016-11-19T17:25:53.097Z,75.6
2016-11-19T17:27:03.441Z,75.32
2016-11-19T17:28:13.799Z,75.6
2016-11-19T17:29:24.143Z,75.7
2016-11-19T17:30:34.172Z,75.74
2016-11-19T17:31:44.515Z,75.51
2016-11-19T17:32:54.869Z,75.6
2016-11-19T17:34:05.273Z,75.22
2016-11-19T17:35:15.628Z,75.26
2016-11-19T17:36:25.986Z,75.16
2016-11-19T17:37:36.364Z,75.51
2016-11-19T17:38:46.719Z,75.32
2016-11-19T17:39:56.774Z,75.35
2016-11-19T17:41:06.829Z,75.35
2016-11-19T17:42:17.178Z,75.35
2016-11-19T17:43:27.208Z,75.26
2016-11-19T17:44:37.576Z,75.54
2016-11-19T17:45:47.938Z,75.35
2016-11-19T17:46:58.303Z,75.6
2016-11-19T17:48:08.341Z,75.51
2016-11-19T17:49:18.707Z,75.35
2016-11-19T17:50:29.068Z,75.35
2016-11-19T17:51:39.418Z,75.54
2016-11-19T17:52:49.799Z,75.45
2016-11-19T17:54:00.163Z,75.45
2016-11-19T17:55:10.525Z,75.93
2016-11-19T17:56:20.864Z,75.74
2016-11-19T17:57:30.906Z,75.83
2016-11-19T17:58:41.447Z,75.7
2016-11-19T17:59:51.470Z,76.08
2016-11-19T18:01:01.858Z,76.08
2016-11-19T18:02:11.906Z,75.7
2016-11-19T18:03:21.943Z,75.6
2016-11-19T18:04:32.305Z,75.6
2016-11-19T18:05:42.339Z,75.7
2016-11-19T18:06:52.690Z,75.7
2016-11-19T18:08:02.997Z,75.7
2016-11-19T18:09:13.358Z,75.7
2016-11-19T18:10:23.390Z,75.51
2016-11-19T18:11:33.767Z,75.89
2016-11-19T18:12:44.132Z,75.7
2016-11-19T18:13:54.500Z,75.89
2016-11-19T18:15:04.873Z,75.89
2016-11-19T18:16:14.620Z,75.6
2016-11-19T18:17:24.352Z,75.7
2016-11-19T18:18:34.709Z,75.51
2016-11-19T18:19:45.000Z,75.6
2016-11-19T18:20:55.347Z,75.7
2016-11-19T18:22:05.708Z,75.6
2016-11-19T18:23:16.084Z,75.79
2016-11-19T18:24:26.145Z,75.7
2016-11-19T18:25:36.498Z,75.7
2016-11-19T18:26:46.867Z,75.7
2016-11-19T18:27:56.913Z,75.7
2016-11-19T18:29:07.277Z,75.42
2016-11-19T18:30:17.659Z,75.89
2016-11-19T18:31:27.717Z,76.08
2016-11-19T18:32:37.792Z,75.6
2016-11-19T18:33:48.162Z,75.7
2016-11-19T18:34:58.208Z,75.7
2016-11-19T18:36:08.550Z,75.7
2016-11-19T18:37:18.902Z,75.7
2016-11-19T18:38:29.287Z,75.89
2016-11-19T18:39:39.340Z,75.6
2016-11-19T18:40:49.091Z,75.7
2016-11-19T18:41:59.456Z,75.7
2016-11-19T18:43:09.481Z,75.89
2016-11-19T18:44:19.848Z,75.7
2016-11-19T18:45:30.241Z,75.7
2016-11-19T18:46:40.651Z,75.79
2016-11-19T18:47:51.034Z,75.51
2016-11-19T18:49:01.078Z,76.04
2016-11-19T18:50:11.119Z,75.7
2016-11-19T18:51:21.471Z,75.89
2016-11-19T18:52:31.825Z,75.51
2016-11-19T18:53:42.188Z,75.51
2016-11-19T18:54:52.546Z,75.51
2016-11-19T18:56:02.933Z,75.51
2016-11-19T18:57:12.660Z,75.32
2016-11-19T18:58:23.031Z,75.51
2016-11-19T18:59:33.088Z,75.42
2016-11-19T19:00:43.434Z,75.28
2016-11-19T19:01:53.480Z,75.37
2016-11-19T19:03:03.514Z,75.51
2016-11-19T19:04:13.915Z,75.51
2016-11-19T19:05:24.279Z,75.47
2016-11-19T19:06:34.626Z,75.47
2016-11-19T19:07:44.370Z,75.32
2016-11-19T19:08:54.749Z,75.47
2016-11-19T19:10:05.096Z,75.37
2016-11-19T19:11:15.437Z,75.47
2016-11-19T19:12:25.469Z,75.18
2016-11-19T19:13:35.840Z,75.47
2016-11-19T19:14:46.215Z,75.66
2016-11-19T19:15:56.579Z,75.47
2016-11-19T19:17:07.004Z,75.47
2016-11-19T19:18:17.390Z,75.47
2016-11-19T19:19:27.761Z,75.37
2016-11-19T19:20:37.816Z,75.28
2016-11-19T19:21:47.995Z,75.37
2016-11-19T19:22:58.387Z,75.47
2016-11-19T19:24:08.768Z,75.37
2016-11-19T19:25:19.185Z,75.47
2016-11-19T19:26:29.227Z,75.47
2016-11-19T19:27:39.613Z,75.28
2016-11-19T19:28:50.007Z,75.47
2016-11-19T19:30:00.414Z,75.47
2016-11-19T19:31:10.796Z,75.37
2016-11-19T19:32:21.185Z,75.47
2016-11-19T19:33:31.604Z,75.47
2016-11-19T19:34:41.686Z,75.47
2016-11-19T19:35:51.784Z,75.28
2016-11-19T19:37:02.245Z,75.47
2016-11-19T19:38:12.379Z,75.47
2016-11-19T19:39:22.783Z,75.47
2016-11-19T19:40:33.150Z,75.28
2016-11-19T19:41:43.628Z,75.28
2016-11-19T19:42:54.061Z,75.43
2016-11-19T19:44:04.541Z,75.47
2016-11-19T19:45:14.923Z,75.24
2016-11-19T19:46:25.293Z,75.53
2016-11-19T19:47:35.450Z,75.43
2016-11-19T19:48:45.902Z,75.62
2016-11-19T19:49:56.248Z,75.34
2016-11-19T19:51:06.301Z,75.62
2016-11-19T19:52:16.658Z,75.53
2016-11-19T19:53:27.136Z,75.43
2016-11-19T19:54:37.288Z,75.43
2016-11-19T19:55:47.785Z,75.24
2016-11-19T19:56:57.199Z,75.53
2016-11-19T19:58:07.547Z,75.34
2016-11-19T19:59:17.945Z,75.62
2016-11-19T20:00:28.597Z,75.62
2016-11-19T20:01:39.152Z,75.15
2016-11-19T20:02:50.221Z,75.53
2016-11-19T20:04:02.427Z,75.05
2016-11-19T20:05:12.701Z,75.24
2016-11-19T20:06:23.314Z,75.15
2016-11-19T20:07:34.074Z,75.24
2016-11-19T20:08:44.201Z,75.34
2016-11-19T20:09:54.843Z,74.96
2016-11-19T20:11:05.190Z,75.24
2016-11-19T20:12:15.693Z,75.24
2016-11-19T20:13:26.150Z,75.15
2016-11-19T20:14:36.502Z,75.37
2016-11-19T20:15:47.068Z,75.43
2016-11-19T20:16:56.979Z,74.96
2016-11-19T20:18:07.307Z,75.24
2016-11-19T20:19:17.856Z,75.15
2016-11-19T20:20:28.395Z,75.09
2016-11-19T20:21:38.752Z,75.24
2016-11-19T20:22:49.148Z,75.15
2016-11-19T20:23:59.468Z,75.18
2016-11-19T20:25:10.104Z,75.05
2016-11-19T20:26:21.109Z,75.24
2016-11-19T20:27:31.936Z,75.05
2016-11-19T20:28:42.436Z,75.24
2016-11-19T20:29:52.205Z,75.43
2016-11-19T20:31:02.719Z,75.24
2016-11-19T20:32:13.054Z,75.34
2016-11-19T20:33:23.668Z,75.05
2016-11-19T20:34:34.283Z,75.15
2016-11-19T20:35:45.134Z,75.05
2016-11-19T20:36:56.134Z,75.15
2016-11-19T20:38:06.644Z,75.15
2016-11-19T20:39:17.316Z,75.05
2016-11-19T20:40:27.940Z,75.43
2016-11-19T20:41:38.487Z,75.34
2016-11-19T20:42:48.937Z,75.34
2016-11-19T20:43:59.150Z,75.24
2016-11-19T20:45:10.062Z,75.05
2016-11-19T20:46:20.844Z,75.05
2016-11-19T20:47:31.257Z,75.05
2016-11-19T20:48:42.099Z,75.15
2016-11-19T20:49:52.413Z,75.05
2016-11-19T20:51:03.078Z,74.86
2016-11-19T20:52:13.918Z,74.96
2016-11-19T20:53:24.476Z,75.72
2016-11-19T20:54:35.110Z,75.72
2016-11-19T20:55:45.896Z,75.62
2016-11-19T20:56:56.220Z,75.43
2016-11-19T20:58:06.889Z,75.15
2016-11-19T20:59:17.511Z,75.62
2016-11-19T21:00:28.150Z,75.05
2016-11-19T21:01:38.735Z,75.34
2016-11-19T21:02:49.098Z,75.62
2016-11-19T21:03:59.576Z,75.34
2016-11-19T21:05:09.873Z,75.43
2016-11-19T21:06:20.211Z,75.43
2016-11-19T21:07:30.696Z,75.43
2016-11-19T21:08:41.617Z,75.34
2016-11-19T21:09:52.163Z,75.15
2016-11-19T21:11:02.798Z,75.05
2016-11-19T21:12:13.261Z,75.05
2016-11-19T21:13:24.027Z,75.05
2016-11-19T21:14:34.566Z,75.15
2016-11-19T21:15:44.973Z,75.53
2016-11-19T21:16:55.118Z,75.05
2016-11-19T21:18:05.677Z,75.15
2016-11-19T21:19:16.165Z,75.34
2016-11-19T21:20:26.749Z,75.15
2016-11-19T21:21:36.883Z,75.24
2016-11-19T21:22:47.458Z,75.43
2016-11-19T21:23:57.585Z,75.34
2016-11-19T21:25:07.989Z,75.34
2016-11-19T21:26:18.203Z,75.43
2016-11-19T21:27:28.601Z,75.15
2016-11-19T21:28:39.150Z,75.24
2016-11-19T21:29:49.536Z,75.15
2016-11-19T21:30:59.991Z,75.24
2016-11-19T21:32:10.409Z,75.24
2016-11-19T21:33:20.548Z,75.34
2016-11-19T21:34:31.009Z,75.34
2016-11-19T21:35:41.282Z,75.43
2016-11-19T21:36:51.703Z,75.24
2016-11-19T21:38:02.070Z,75.15
2016-11-19T21:39:11.905Z,75.24
2016-11-19T21:40:22.603Z,75.15
2016-11-19T21:41:33.048Z,75.24
2016-11-19T21:42:43.124Z,75.24
2016-11-19T21:43:53.577Z,75.24
2016-11-19T21:45:04.263Z,75.34
2016-11-19T21:46:14.970Z,74.77
2016-11-19T21:47:25.043Z,75.15
2016-11-19T21:48:35.428Z,75.34
2016-11-19T21:49:45.793Z,75.34
2016-11-19T21:50:56.171Z,75.24
2016-11-19T21:52:06.275Z,75.34
2016-11-19T21:53:16.681Z,74.67
2016-11-19T21:54:27.144Z,75.24
2016-11-19T21:55:37.508Z,74.77
2016-11-19T21:56:47.880Z,74.77
2016-11-19T21:57:57.928Z,74.57
2016-11-19T21:59:08.296Z,74.86
2016-11-19T22:00:18.025Z,74.77
2016-11-19T22:01:28.395Z,74.67
2016-11-19T22:02:38.804Z,74.77
2016-11-19T22:03:49.191Z,74.77
2016-11-19T22:04:59.233Z,74.77
2016-11-19T22:06:09.640Z,74.77
2016-11-19T22:07:19.992Z,74.96
2016-11-19T22:08:30.047Z,75.05
2016-11-19T22:09:40.425Z,74.96
2016-11-19T22:10:50.497Z,74.96
2016-11-19T22:12:00.497Z,74.77
2016-11-19T22:13:10.895Z,74.86
2016-11-19T22:14:21.298Z,74.96
2016-11-19T22:15:31.657Z,74.86
2016-11-19T22:16:42.022Z,74.86
2016-11-19T22:17:52.392Z,74.96
2016-11-19T22:19:02.478Z,74.96
2016-11-19T22:20:12.877Z,74.96
2016-11-19T22:21:23.270Z,74.96
2016-11-19T22:22:33.647Z,74.67
2016-11-19T22:23:43.689Z,74.77
2016-11-19T22:24:54.068Z,74.96
2016-11-19T22:26:04.404Z,74.96
2016-11-19T22:27:14.133Z,74.77
2016-11-19T22:28:24.495Z,74.38
2016-11-19T22:29:34.549Z,74.77
2016-11-19T22:30:44.894Z,74.96
2016-11-19T22:31:55.470Z,74.77
2016-11-19T22:33:05.828Z,74.96
2016-11-19T22:34:16.185Z,75.05
2016-11-19T22:35:26.535Z,74.96
2016-11-19T22:36:36.931Z,74.86
2016-11-19T22:37:47.288Z,74.86
2016-11-19T22:38:57.646Z,74.86
2016-11-19T22:40:08.007Z,74.57
2016-11-19T22:41:18.043Z,75.05
2016-11-19T22:42:27.823Z,74.77
2016-11-19T22:43:38.199Z,74.86
2016-11-19T22:44:48.238Z,74.86
2016-11-19T22:45:58.271Z,74.86
2016-11-19T22:47:08.310Z,74.96
2016-11-19T22:48:18.348Z,74.96
2016-11-19T22:49:28.403Z,74.86
2016-11-19T22:50:38.443Z,74.96
2016-11-19T22:51:48.498Z,74.29
2016-11-19T22:52:58.893Z,74.48
2016-11-19T22:54:08.936Z,74.96